sensor_id;sensor_type;location;lat;lon;timestamp;P1;durP1;ratioP1;P2;durP2;ratioP2
19235;SDS011;9752;54.270;12.470;2023-07-20T00:03:43;17.13;;;15.93;;
19235;SDS011;9752;54.270;12.470;2023-07-20T00:08:46;18.30;;;16.73;;
19235;SDS011;9752;54.270;12.470;2023-07-20T00:13:48;16.47;;;15.43;;
19235;SDS011;9752;54.270;12.470;2023-07-20T00:18:49;16.37;;;15.27;;
19235;SDS011;9752;54.270;12.470;2023-07-20T00:23:52;16.03;;;15.13;;
19235;SDS011;9752;54.270;12.470;2023-07-20T00:28:54;15.77;;;14.77;;
19235;SDS011;9752;54.270;12.470;2023-07-20T00:33:56;15.80;;;14.53;;
19235;SDS011;9752;54.270;12.470;2023-07-20T00:38:58;15.33;;;14.23;;
19235;SDS011;9752;54.270;12.470;2023-07-20T00:44:00;15.10;;;14.10;;
19235;SDS011;9752;54.270;12.470;2023-07-20T00:49:02;15.23;;;14.50;;
19235;SDS011;9752;54.270;12.470;2023-07-20T00:54:05;15.80;;;14.47;;
19235;SDS011;9752;54.270;12.470;2023-07-20T00:59:09;15.43;;;14.23;;
19235;SDS011;9752;54.270;12.470;2023-07-20T01:04:12;17.87;;;16.77;;
19235;SDS011;9752;54.270;12.470;2023-07-20T01:09:18;17.90;;;16.47;;
19235;SDS011;9752;54.270;12.470;2023-07-20T01:14:26;17.13;;;15.93;;
19235;SDS011;9752;54.270;12.470;2023-07-20T01:19:28;16.20;;;15.30;;
19235;SDS011;9752;54.270;12.470;2023-07-20T01:24:44;15.63;;;14.70;;
19235;SDS011;9752;54.270;12.470;2023-07-20T01:35:33;14.27;;;13.43;;
19235;SDS011;9752;54.270;12.470;2023-07-20T01:40:37;15.33;;;14.33;;
19235;SDS011;9752;54.270;12.470;2023-07-20T01:45:39;15.60;;;14.80;;
19235;SDS011;9752;54.270;12.470;2023-07-20T01:50:42;15.40;;;14.50;;
19235;SDS011;9752;54.270;12.470;2023-07-20T01:55:44;15.30;;;14.40;;
19235;SDS011;9752;54.270;12.470;2023-07-20T02:00:47;15.50;;;14.60;;
19235;SDS011;9752;54.270;12.470;2023-07-20T02:05:51;15.70;;;14.80;;
19235;SDS011;9752;54.270;12.470;2023-07-20T02:10:53;16.03;;;14.87;;
19235;SDS011;9752;54.270;12.470;2023-07-20T02:15:55;16.47;;;15.67;;
19235;SDS011;9752;54.270;12.470;2023-07-20T02:20:58;18.23;;;16.67;;
19235;SDS011;9752;54.270;12.470;2023-07-20T02:26:00;17.60;;;16.40;;
19235;SDS011;9752;54.270;12.470;2023-07-20T02:31:01;17.57;;;16.03;;
19235;SDS011;9752;54.270;12.470;2023-07-20T02:36:05;16.40;;;15.50;;
19235;SDS011;9752;54.270;12.470;2023-07-20T02:41:06;16.57;;;15.57;;
19235;SDS011;9752;54.270;12.470;2023-07-20T02:46:08;19.97;;;18.00;;
19235;SDS011;9752;54.270;12.470;2023-07-20T02:51:11;19.70;;;18.03;;
19235;SDS011;9752;54.270;12.470;2023-07-20T02:56:12;17.80;;;16.37;;
19235;SDS011;9752;54.270;12.470;2023-07-20T03:01:14;15.47;;;14.30;;
19235;SDS011;9752;54.270;12.470;2023-07-20T03:06:17;14.00;;;13.30;;
19235;SDS011;9752;54.270;12.470;2023-07-20T03:11:19;14.30;;;13.60;;
19235;SDS011;9752;54.270;12.470;2023-07-20T03:16:23;15.20;;;14.20;;
19235;SDS011;9752;54.270;12.470;2023-07-20T03:21:28;15.57;;;14.40;;
19235;SDS011;9752;54.270;12.470;2023-07-20T03:26:30;16.33;;;15.10;;
19235;SDS011;9752;54.270;12.470;2023-07-20T03:31:32;14.60;;;14.00;;
19235;SDS011;9752;54.270;12.470;2023-07-20T03:36:35;15.20;;;14.17;;
19235;SDS011;9752;54.270;12.470;2023-07-20T03:41:36;14.27;;;13.67;;
19235;SDS011;9752;54.270;12.470;2023-07-20T03:46:38;15.10;;;14.40;;
19235;SDS011;9752;54.270;12.470;2023-07-20T03:51:41;15.30;;;14.30;;
19235;SDS011;9752;54.270;12.470;2023-07-20T03:56:43;14.90;;;14.00;;
19235;SDS011;9752;54.270;12.470;2023-07-20T04:01:45;14.67;;;13.97;;
19235;SDS011;9752;54.270;12.470;2023-07-20T04:06:48;15.23;;;13.80;;
19235;SDS011;9752;54.270;12.470;2023-07-20T04:11:49;14.97;;;14.03;;
19235;SDS011;9752;54.270;12.470;2023-07-20T04:16:51;14.27;;;13.50;;
19235;SDS011;9752;54.270;12.470;2023-07-20T04:21:54;15.20;;;14.50;;
19235;SDS011;9752;54.270;12.470;2023-07-20T04:26:56;13.10;;;12.57;;
19235;SDS011;9752;54.270;12.470;2023-07-20T04:31:57;12.27;;;11.67;;
19235;SDS011;9752;54.270;12.470;2023-07-20T04:37:00;11.53;;;10.93;;
19235;SDS011;9752;54.270;12.470;2023-07-20T04:42:02;12.30;;;11.43;;
19235;SDS011;9752;54.270;12.470;2023-07-20T04:47:04;10.67;;;10.03;;
19235;SDS011;9752;54.270;12.470;2023-07-20T04:52:11;9.70;;;9.20;;
19235;SDS011;9752;54.270;12.470;2023-07-20T04:57:13;9.40;;;8.77;;
19235;SDS011;9752;54.270;12.470;2023-07-20T05:02:20;7.83;;;7.43;;
19235;SDS011;9752;54.270;12.470;2023-07-20T05:07:23;7.80;;;7.20;;
19235;SDS011;9752;54.270;12.470;2023-07-20T05:12:25;7.70;;;7.10;;
19235;SDS011;9752;54.270;12.470;2023-07-20T05:17:26;7.60;;;7.10;;
19235;SDS011;9752;54.270;12.470;2023-07-20T05:22:29;7.50;;;7.13;;
19235;SDS011;9752;54.270;12.470;2023-07-20T05:27:31;7.67;;;7.30;;
19235;SDS011;9752;54.270;12.470;2023-07-20T05:32:33;9.20;;;8.60;;
19235;SDS011;9752;54.270;12.470;2023-07-20T05:37:36;8.40;;;7.90;;
19235;SDS011;9752;54.270;12.470;2023-07-20T05:42:37;9.87;;;9.40;;
19235;SDS011;9752;54.270;12.470;2023-07-20T05:47:39;10.17;;;9.47;;
19235;SDS011;9752;54.270;12.470;2023-07-20T05:52:42;8.20;;;7.90;;
19235;SDS011;9752;54.270;12.470;2023-07-20T05:57:44;7.40;;;7.00;;
19235;SDS011;9752;54.270;12.470;2023-07-20T06:02:47;8.43;;;7.97;;
19235;SDS011;9752;54.270;12.470;2023-07-20T06:07:50;8.27;;;7.67;;
19235;SDS011;9752;54.270;12.470;2023-07-20T06:12:52;8.13;;;7.53;;
19235;SDS011;9752;54.270;12.470;2023-07-20T06:17:55;7.93;;;7.60;;
19235;SDS011;9752;54.270;12.470;2023-07-20T06:22:59;8.23;;;7.93;;
19235;SDS011;9752;54.270;12.470;2023-07-20T06:28:01;8.47;;;8.07;;
19235;SDS011;9752;54.270;12.470;2023-07-20T06:33:04;9.00;;;8.53;;
19235;SDS011;9752;54.270;12.470;2023-07-20T06:38:07;10.47;;;9.93;;
19235;SDS011;9752;54.270;12.470;2023-07-20T06:43:08;9.80;;;9.30;;
19235;SDS011;9752;54.270;12.470;2023-07-20T06:48:10;10.10;;;9.60;;
19235;SDS011;9752;54.270;12.470;2023-07-20T06:53:13;9.73;;;9.30;;
19235;SDS011;9752;54.270;12.470;2023-07-20T06:58:15;10.87;;;10.27;;
19235;SDS011;9752;54.270;12.470;2023-07-20T07:03:16;10.80;;;10.30;;
19235;SDS011;9752;54.270;12.470;2023-07-20T07:08:20;9.00;;;8.60;;
19235;SDS011;9752;54.270;12.470;2023-07-20T07:13:22;10.00;;;9.27;;
19235;SDS011;9752;54.270;12.470;2023-07-20T07:18:23;10.30;;;9.50;;
19235;SDS011;9752;54.270;12.470;2023-07-20T07:23:28;8.00;;;7.50;;
19235;SDS011;9752;54.270;12.470;2023-07-20T07:28:29;7.23;;;6.63;;
19235;SDS011;9752;54.270;12.470;2023-07-20T07:33:32;8.90;;;8.00;;
19235;SDS011;9752;54.270;12.470;2023-07-20T07:38:36;10.33;;;9.67;;
19235;SDS011;9752;54.270;12.470;2023-07-20T07:43:37;10.30;;;9.80;;
19235;SDS011;9752;54.270;12.470;2023-07-20T07:48:39;9.40;;;8.70;;
19235;SDS011;9752;54.270;12.470;2023-07-20T07:53:42;9.90;;;9.20;;
19235;SDS011;9752;54.270;12.470;2023-07-20T07:58:44;9.00;;;8.20;;
19235;SDS011;9752;54.270;12.470;2023-07-20T08:03:46;10.00;;;9.10;;
19235;SDS011;9752;54.270;12.470;2023-07-20T08:08:49;10.80;;;9.87;;
19235;SDS011;9752;54.270;12.470;2023-07-20T08:13:51;10.70;;;10.20;;
19235;SDS011;9752;54.270;12.470;2023-07-20T08:18:52;12.87;;;12.13;;
19235;SDS011;9752;54.270;12.470;2023-07-20T08:23:55;12.07;;;11.33;;
19235;SDS011;9752;54.270;12.470;2023-07-20T08:28:57;13.93;;;13.03;;
19235;SDS011;9752;54.270;12.470;2023-07-20T08:33:59;12.87;;;12.07;;
19235;SDS011;9752;54.270;12.470;2023-07-20T08:39:02;13.00;;;12.30;;
19235;SDS011;9752;54.270;12.470;2023-07-20T08:44:04;12.03;;;10.93;;
19235;SDS011;9752;54.270;12.470;2023-07-20T08:49:06;10.50;;;9.73;;
19235;SDS011;9752;54.270;12.470;2023-07-20T08:54:09;11.70;;;10.90;;
19235;SDS011;9752;54.270;12.470;2023-07-20T08:59:15;12.67;;;11.80;;
19235;SDS011;9752;54.270;12.470;2023-07-20T09:04:19;13.60;;;12.13;;
19235;SDS011;9752;54.270;12.470;2023-07-20T09:09:22;11.70;;;10.70;;
19235;SDS011;9752;54.270;12.470;2023-07-20T09:14:24;11.60;;;10.90;;
19235;SDS011;9752;54.270;12.470;2023-07-20T09:19:25;10.20;;;9.70;;
19235;SDS011;9752;54.270;12.470;2023-07-20T09:24:28;11.87;;;11.27;;
19235;SDS011;9752;54.270;12.470;2023-07-20T09:29:30;13.20;;;12.47;;
19235;SDS011;9752;54.270;12.470;2023-07-20T09:34:32;12.63;;;12.00;;
19235;SDS011;9752;54.270;12.470;2023-07-20T09:39:41;13.87;;;13.17;;
19235;SDS011;9752;54.270;12.470;2023-07-20T09:44:44;15.20;;;14.33;;
19235;SDS011;9752;54.270;12.470;2023-07-20T09:49:46;14.17;;;13.47;;
19235;SDS011;9752;54.270;12.470;2023-07-20T09:54:49;14.10;;;13.37;;
19235;SDS011;9752;54.270;12.470;2023-07-20T09:59:50;14.37;;;13.60;;
19235;SDS011;9752;54.270;12.470;2023-07-20T10:04:52;14.80;;;13.77;;
19235;SDS011;9752;54.270;12.470;2023-07-20T10:09:56;14.97;;;14.13;;
19235;SDS011;9752;54.270;12.470;2023-07-20T10:15:06;15.90;;;14.43;;
19235;SDS011;9752;54.270;12.470;2023-07-20T10:20:17;14.23;;;13.40;;
19235;SDS011;9752;54.270;12.470;2023-07-20T10:25:23;15.60;;;14.67;;
19235;SDS011;9752;54.270;12.470;2023-07-20T10:30:25;14.40;;;13.40;;
19235;SDS011;9752;54.270;12.470;2023-07-20T10:35:28;13.77;;;13.07;;
19235;SDS011;9752;54.270;12.470;2023-07-20T10:40:31;15.63;;;14.73;;
19235;SDS011;9752;54.270;12.470;2023-07-20T10:45:34;14.67;;;13.57;;
19235;SDS011;9752;54.270;12.470;2023-07-20T10:50:37;14.63;;;13.77;;
19235;SDS011;9752;54.270;12.470;2023-07-20T10:55:40;14.97;;;13.83;;
19235;SDS011;9752;54.270;12.470;2023-07-20T11:00:57;14.10;;;13.37;;
19235;SDS011;9752;54.270;12.470;2023-07-20T11:11:33;14.17;;;13.20;;
19235;SDS011;9752;54.270;12.470;2023-07-20T11:16:39;13.87;;;12.87;;
19235;SDS011;9752;54.270;12.470;2023-07-20T11:21:42;12.93;;;12.27;;
19235;SDS011;9752;54.270;12.470;2023-07-20T11:26:47;13.27;;;12.53;;
19235;SDS011;9752;54.270;12.470;2023-07-20T11:31:49;14.10;;;13.03;;
19235;SDS011;9752;54.270;12.470;2023-07-20T11:36:51;14.77;;;13.90;;
19235;SDS011;9752;54.270;12.470;2023-07-20T11:41:55;13.33;;;12.60;;
19235;SDS011;9752;54.270;12.470;2023-07-20T11:47:00;16.03;;;14.87;;
19235;SDS011;9752;54.270;12.470;2023-07-20T11:52:04;15.20;;;14.30;;
19235;SDS011;9752;54.270;12.470;2023-07-20T11:57:08;16.33;;;15.33;;
19235;SDS011;9752;54.270;12.470;2023-07-20T12:02:17;17.00;;;15.90;;
19235;SDS011;9752;54.270;12.470;2023-07-20T12:07:19;16.93;;;15.80;;
19235;SDS011;9752;54.270;12.470;2023-07-20T12:12:22;16.53;;;15.43;;
19235;SDS011;9752;54.270;12.470;2023-07-20T12:17:24;15.67;;;14.83;;
19235;SDS011;9752;54.270;12.470;2023-07-20T12:22:25;15.50;;;14.40;;
19235;SDS011;9752;54.270;12.470;2023-07-20T12:27:28;15.63;;;14.43;;
19235;SDS011;9752;54.270;12.470;2023-07-20T12:32:30;15.40;;;14.70;;
19235;SDS011;9752;54.270;12.470;2023-07-20T12:37:32;16.17;;;15.03;;
19235;SDS011;9752;54.270;12.470;2023-07-20T12:42:35;15.80;;;15.00;;
19235;SDS011;9752;54.270;12.470;2023-07-20T12:47:37;14.50;;;13.77;;
19235;SDS011;9752;54.270;12.470;2023-07-20T12:52:39;14.17;;;13.50;;
19235;SDS011;9752;54.270;12.470;2023-07-20T12:57:42;13.57;;;12.93;;
19235;SDS011;9752;54.270;12.470;2023-07-20T13:02:44;13.73;;;13.03;;
19235;SDS011;9752;54.270;12.470;2023-07-20T13:07:46;14.20;;;13.57;;
19235;SDS011;9752;54.270;12.470;2023-07-20T13:12:49;14.80;;;14.10;;
19235;SDS011;9752;54.270;12.470;2023-07-20T13:17:52;14.10;;;13.47;;
19235;SDS011;9752;54.270;12.470;2023-07-20T13:22:54;12.10;;;11.60;;
19235;SDS011;9752;54.270;12.470;2023-07-20T13:27:57;14.20;;;13.50;;
19235;SDS011;9752;54.270;12.470;2023-07-20T13:32:58;14.67;;;13.90;;
19235;SDS011;9752;54.270;12.470;2023-07-20T13:38:00;15.03;;;14.33;;
19235;SDS011;9752;54.270;12.470;2023-07-20T13:43:03;14.07;;;13.10;;
19235;SDS011;9752;54.270;12.470;2023-07-20T13:48:05;13.63;;;12.60;;
19235;SDS011;9752;54.270;12.470;2023-07-20T13:53:06;14.80;;;13.63;;
19235;SDS011;9752;54.270;12.470;2023-07-20T13:58:09;13.77;;;13.03;;
19235;SDS011;9752;54.270;12.470;2023-07-20T14:03:11;13.37;;;12.73;;
19235;SDS011;9752;54.270;12.470;2023-07-20T14:08:13;12.40;;;11.90;;
19235;SDS011;9752;54.270;12.470;2023-07-20T14:13:16;13.70;;;13.03;;
19235;SDS011;9752;54.270;12.470;2023-07-20T14:18:18;13.33;;;12.63;;
19235;SDS011;9752;54.270;12.470;2023-07-20T14:23:20;12.30;;;11.70;;
19235;SDS011;9752;54.270;12.470;2023-07-20T14:28:23;12.70;;;12.03;;
19235;SDS011;9752;54.270;12.470;2023-07-20T14:33:25;15.23;;;14.57;;
19235;SDS011;9752;54.270;12.470;2023-07-20T14:38:27;16.70;;;15.73;;
19235;SDS011;9752;54.270;12.470;2023-07-20T14:43:30;16.73;;;15.87;;
19235;SDS011;9752;54.270;12.470;2023-07-20T14:48:32;16.43;;;15.50;;
19235;SDS011;9752;54.270;12.470;2023-07-20T14:53:33;16.40;;;15.70;;
19235;SDS011;9752;54.270;12.470;2023-07-20T14:58:36;17.13;;;16.17;;
19235;SDS011;9752;54.270;12.470;2023-07-20T15:03:38;17.00;;;15.90;;
19235;SDS011;9752;54.270;12.470;2023-07-20T15:08:39;16.93;;;16.07;;
19235;SDS011;9752;54.270;12.470;2023-07-20T15:13:42;16.33;;;15.13;;
19235;SDS011;9752;54.270;12.470;2023-07-20T15:18:44;16.33;;;15.33;;
19235;SDS011;9752;54.270;12.470;2023-07-20T15:23:47;16.10;;;15.10;;
19235;SDS011;9752;54.270;12.470;2023-07-20T15:28:51;14.97;;;14.03;;
19235;SDS011;9752;54.270;12.470;2023-07-20T15:33:54;15.37;;;14.37;;
19235;SDS011;9752;54.270;12.470;2023-07-20T15:38:56;15.67;;;14.87;;
19235;SDS011;9752;54.270;12.470;2023-07-20T15:43:59;16.67;;;15.50;;
19235;SDS011;9752;54.270;12.470;2023-07-20T15:49:01;16.63;;;15.63;;
19235;SDS011;9752;54.270;12.470;2023-07-20T15:54:03;15.70;;;14.80;;
19235;SDS011;9752;54.270;12.470;2023-07-20T15:59:09;16.80;;;15.80;;
19235;SDS011;9752;54.270;12.470;2023-07-20T16:04:12;15.57;;;14.47;;
19235;SDS011;9752;54.270;12.470;2023-07-20T16:09:15;17.23;;;15.97;;
19235;SDS011;9752;54.270;12.470;2023-07-20T16:14:18;15.50;;;14.50;;
19235;SDS011;9752;54.270;12.470;2023-07-20T16:19:19;17.00;;;15.63;;
19235;SDS011;9752;54.270;12.470;2023-07-20T16:24:21;15.60;;;14.60;;
19235;SDS011;9752;54.270;12.470;2023-07-20T16:29:25;16.27;;;14.80;;
19235;SDS011;9752;54.270;12.470;2023-07-20T16:34:26;16.70;;;15.50;;
19235;SDS011;9752;54.270;12.470;2023-07-20T16:39:28;17.27;;;15.93;;
19235;SDS011;9752;54.270;12.470;2023-07-20T16:44:32;15.10;;;13.97;;
19235;SDS011;9752;54.270;12.470;2023-07-20T16:49:34;16.23;;;14.80;;
19235;SDS011;9752;54.270;12.470;2023-07-20T16:54:35;16.73;;;15.63;;
19235;SDS011;9752;54.270;12.470;2023-07-20T16:59:38;15.53;;;14.27;;
19235;SDS011;9752;54.270;12.470;2023-07-20T17:04:40;16.07;;;14.80;;
19235;SDS011;9752;54.270;12.470;2023-07-20T17:09:41;16.43;;;15.43;;
19235;SDS011;9752;54.270;12.470;2023-07-20T17:14:44;16.30;;;14.93;;
19235;SDS011;9752;54.270;12.470;2023-07-20T17:19:47;16.97;;;15.73;;
19235;SDS011;9752;54.270;12.470;2023-07-20T17:24:48;15.70;;;14.77;;
19235;SDS011;9752;54.270;12.470;2023-07-20T17:29:51;16.33;;;14.97;;
19235;SDS011;9752;54.270;12.470;2023-07-20T17:34:54;16.30;;;15.10;;
19235;SDS011;9752;54.270;12.470;2023-07-20T17:39:56;16.63;;;14.90;;
19235;SDS011;9752;54.270;12.470;2023-07-20T17:44:59;16.57;;;15.33;;
19235;SDS011;9752;54.270;12.470;2023-07-20T17:50:01;16.60;;;15.60;;
19235;SDS011;9752;54.270;12.470;2023-07-20T17:55:03;16.20;;;15.00;;
19235;SDS011;9752;54.270;12.470;2023-07-20T18:00:07;16.33;;;15.27;;
19235;SDS011;9752;54.270;12.470;2023-07-20T18:05:10;15.70;;;14.37;;
19235;SDS011;9752;54.270;12.470;2023-07-20T18:10:13;15.60;;;14.53;;
19235;SDS011;9752;54.270;12.470;2023-07-20T18:15:16;15.23;;;13.83;;
19235;SDS011;9752;54.270;12.470;2023-07-20T18:20:18;14.80;;;14.00;;
19235;SDS011;9752;54.270;12.470;2023-07-20T18:25:20;14.60;;;13.80;;
19235;SDS011;9752;54.270;12.470;2023-07-20T18:30:24;15.80;;;14.50;;
19235;SDS011;9752;54.270;12.470;2023-07-20T18:35:32;15.17;;;14.17;;
19235;SDS011;9752;54.270;12.470;2023-07-20T18:40:34;14.03;;;13.30;;
19235;SDS011;9752;54.270;12.470;2023-07-20T18:45:37;13.77;;;12.93;;
19235;SDS011;9752;54.270;12.470;2023-07-20T18:50:40;14.10;;;13.33;;
19235;SDS011;9752;54.270;12.470;2023-07-20T18:55:42;14.43;;;13.50;;
19235;SDS011;9752;54.270;12.470;2023-07-20T19:00:45;12.73;;;12.03;;
19235;SDS011;9752;54.270;12.470;2023-07-20T19:05:49;12.07;;;11.27;;
19235;SDS011;9752;54.270;12.470;2023-07-20T19:10:51;12.87;;;12.17;;
19235;SDS011;9752;54.270;12.470;2023-07-20T19:15:54;11.77;;;10.90;;
19235;SDS011;9752;54.270;12.470;2023-07-20T19:20:59;13.10;;;12.30;;
19235;SDS011;9752;54.270;12.470;2023-07-20T19:26:04;11.87;;;11.07;;
19235;SDS011;9752;54.270;12.470;2023-07-20T19:31:08;11.87;;;10.93;;
19235;SDS011;9752;54.270;12.470;2023-07-20T19:36:09;11.23;;;10.43;;
19235;SDS011;9752;54.270;12.470;2023-07-20T19:41:11;11.70;;;11.00;;
19235;SDS011;9752;54.270;12.470;2023-07-20T19:46:14;11.27;;;10.67;;
19235;SDS011;9752;54.270;12.470;2023-07-20T19:51:16;11.60;;;10.90;;
19235;SDS011;9752;54.270;12.470;2023-07-20T19:56:17;11.97;;;11.27;;
19235;SDS011;9752;54.270;12.470;2023-07-20T20:01:20;12.70;;;11.93;;
19235;SDS011;9752;54.270;12.470;2023-07-20T20:06:23;13.23;;;12.17;;
19235;SDS011;9752;54.270;12.470;2023-07-20T20:11:25;13.77;;;12.77;;
19235;SDS011;9752;54.270;12.470;2023-07-20T20:16:28;12.90;;;11.90;;
19235;SDS011;9752;54.270;12.470;2023-07-20T20:21:29;12.03;;;11.00;;
19235;SDS011;9752;54.270;12.470;2023-07-20T20:26:31;12.50;;;11.70;;
19235;SDS011;9752;54.270;12.470;2023-07-20T20:31:38;13.20;;;12.30;;
19235;SDS011;9752;54.270;12.470;2023-07-20T20:36:40;13.53;;;12.63;;
19235;SDS011;9752;54.270;12.470;2023-07-20T20:41:43;13.10;;;12.10;;
19235;SDS011;9752;54.270;12.470;2023-07-20T20:46:48;13.40;;;12.50;;
19235;SDS011;9752;54.270;12.470;2023-07-20T20:51:50;12.37;;;11.30;;
19235;SDS011;9752;54.270;12.470;2023-07-20T20:56:51;13.13;;;12.23;;
19235;SDS011;9752;54.270;12.470;2023-07-20T21:01:55;13.47;;;12.23;;
19235;SDS011;9752;54.270;12.470;2023-07-20T21:06:58;12.73;;;11.90;;
19235;SDS011;9752;54.270;12.470;2023-07-20T21:12:00;14.60;;;13.43;;
19235;SDS011;9752;54.270;12.470;2023-07-20T21:17:03;14.57;;;13.53;;
19235;SDS011;9752;54.270;12.470;2023-07-20T21:22:05;13.53;;;12.83;;
19235;SDS011;9752;54.270;12.470;2023-07-20T21:27:07;14.57;;;13.10;;
19235;SDS011;9752;54.270;12.470;2023-07-20T21:32:10;12.83;;;11.93;;
19235;SDS011;9752;54.270;12.470;2023-07-20T21:37:11;13.43;;;12.50;;
19235;SDS011;9752;54.270;12.470;2023-07-20T21:42:13;12.17;;;11.37;;
19235;SDS011;9752;54.270;12.470;2023-07-20T21:47:16;11.67;;;10.77;;
19235;SDS011;9752;54.270;12.470;2023-07-20T21:52:19;12.93;;;11.97;;
19235;SDS011;9752;54.270;12.470;2023-07-20T21:57:20;13.33;;;12.57;;
19235;SDS011;9752;54.270;12.470;2023-07-20T22:02:23;17.33;;;16.07;;
19235;SDS011;9752;54.270;12.470;2023-07-20T22:07:25;15.57;;;14.47;;
19235;SDS011;9752;54.270;12.470;2023-07-20T22:12:28;16.40;;;15.20;;
19235;SDS011;9752;54.270;12.470;2023-07-20T22:17:31;16.13;;;15.03;;
19235;SDS011;9752;54.270;12.470;2023-07-20T22:22:33;16.13;;;15.00;;
19235;SDS011;9752;54.270;12.470;2023-07-20T22:27:35;16.20;;;15.20;;
19235;SDS011;9752;54.270;12.470;2023-07-20T22:32:38;16.77;;;15.27;;
19235;SDS011;9752;54.270;12.470;2023-07-20T22:37:40;16.47;;;15.13;;
19235;SDS011;9752;54.270;12.470;2023-07-20T22:42:42;15.77;;;14.57;;
19235;SDS011;9752;54.270;12.470;2023-07-20T22:47:47;15.23;;;13.93;;
19235;SDS011;9752;54.270;12.470;2023-07-20T22:52:48;14.67;;;13.27;;
19235;SDS011;9752;54.270;12.470;2023-07-20T22:57:50;14.80;;;13.30;;
19235;SDS011;9752;54.270;12.470;2023-07-20T23:02:55;15.13;;;13.60;;
19235;SDS011;9752;54.270;12.470;2023-07-20T23:07:57;16.30;;;13.87;;
19235;SDS011;9752;54.270;12.470;2023-07-20T23:12:58;14.73;;;13.47;;
19235;SDS011;9752;54.270;12.470;2023-07-20T23:18:02;13.70;;;12.67;;
19235;SDS011;9752;54.270;12.470;2023-07-20T23:23:04;13.23;;;12.07;;
19235;SDS011;9752;54.270;12.470;2023-07-20T23:28:07;13.67;;;12.37;;
19235;SDS011;9752;54.270;12.470;2023-07-20T23:33:10;15.93;;;13.40;;
19235;SDS011;9752;54.270;12.470;2023-07-20T23:38:12;14.17;;;12.90;;
19235;SDS011;9752;54.270;12.470;2023-07-20T23:43:14;13.47;;;12.40;;
19235;SDS011;9752;54.270;12.470;2023-07-20T23:48:17;14.07;;;12.67;;
19235;SDS011;9752;54.270;12.470;2023-07-20T23:53:19;15.20;;;13.83;;
19235;SDS011;9752;54.270;12.470;2023-07-20T23:58:20;14.40;;;13.30;;
